Terminal Aerodrome Forecast
Issued by NWS Bismarck, ND

Home | Current Version | Previous Version | Graphics & Text | Print | Product List | Glossary On
Versions: 1 2 3 4 5 6 7 8 9 10 11 12 13 14 15 16 17 18 19 20 21 22
000
FTUS43 KBIS 291100
TAFBIS
TAF
KBIS 291123Z 2912/3012 25005KT P6SM SKC
     FM291400 14006KT P6SM SCT100 SCT250
     FM291600 18010KT P6SM BKN100
     FM292300 23009KT P6SM BKN035 BKN070
     FM300600 32010KT P6SM BKN025 OVC035=

USA.gov is the U.S. government's official web portal to all federal, state and local government web resources and services.